sensor_id;sensor_type;location;lat;lon;timestamp;P1;durP1;ratioP1;P2;durP2;ratioP2
30605;SDS011;17371;51.328;3.860;2023-05-07T00:01:24;8.60;;;5.13;;
30605;SDS011;17371;51.328;3.860;2023-05-07T00:03:49;8.55;;;5.30;;
30605;SDS011;17371;51.328;3.860;2023-05-07T00:06:14;6.73;;;4.80;;
30605;SDS011;17371;51.328;3.860;2023-05-07T00:08:40;9.27;;;5.47;;
30605;SDS011;17371;51.328;3.860;2023-05-07T00:11:05;7.57;;;5.30;;
30605;SDS011;17371;51.328;3.860;2023-05-07T00:13:31;7.20;;;5.10;;
30605;SDS011;17371;51.328;3.860;2023-05-07T00:15:56;7.43;;;5.10;;
30605;SDS011;17371;51.328;3.860;2023-05-07T00:18:23;6.57;;;4.90;;
30605;SDS011;17371;51.328;3.860;2023-05-07T00:20:48;6.65;;;4.85;;
30605;SDS011;17371;51.328;3.860;2023-05-07T00:23:13;8.27;;;5.30;;
30605;SDS011;17371;51.328;3.860;2023-05-07T00:25:39;7.97;;;5.33;;
30605;SDS011;17371;51.328;3.860;2023-05-07T00:28:04;7.80;;;4.90;;
30605;SDS011;17371;51.328;3.860;2023-05-07T00:30:30;8.07;;;4.97;;
30605;SDS011;17371;51.328;3.860;2023-05-07T00:32:55;7.43;;;4.87;;
30605;SDS011;17371;51.328;3.860;2023-05-07T00:35:22;8.88;;;5.38;;
30605;SDS011;17371;51.328;3.860;2023-05-07T00:37:47;7.27;;;5.07;;
30605;SDS011;17371;51.328;3.860;2023-05-07T00:40:13;7.78;;;4.95;;
30605;SDS011;17371;51.328;3.860;2023-05-07T00:42:38;8.18;;;5.47;;
30605;SDS011;17371;51.328;3.860;2023-05-07T00:45:04;8.77;;;5.63;;
30605;SDS011;17371;51.328;3.860;2023-05-07T00:47:30;7.97;;;5.03;;
30605;SDS011;17371;51.328;3.860;2023-05-07T00:49:56;7.90;;;5.17;;
30605;SDS011;17371;51.328;3.860;2023-05-07T00:52:23;8.50;;;5.50;;
30605;SDS011;17371;51.328;3.860;2023-05-07T00:54:50;8.93;;;5.50;;
30605;SDS011;17371;51.328;3.860;2023-05-07T00:57:16;7.87;;;5.10;;
30605;SDS011;17371;51.328;3.860;2023-05-07T00:59:41;8.57;;;5.23;;
30605;SDS011;17371;51.328;3.860;2023-05-07T01:02:06;8.35;;;5.00;;
30605;SDS011;17371;51.328;3.860;2023-05-07T01:04:32;8.10;;;5.40;;
30605;SDS011;17371;51.328;3.860;2023-05-07T01:06:57;7.10;;;5.37;;
30605;SDS011;17371;51.328;3.860;2023-05-07T01:09:25;9.93;;;5.65;;
30605;SDS011;17371;51.328;3.860;2023-05-07T01:11:51;6.77;;;4.57;;
30605;SDS011;17371;51.328;3.860;2023-05-07T01:14:17;7.93;;;5.13;;
30605;SDS011;17371;51.328;3.860;2023-05-07T01:16:43;8.32;;;4.90;;
30605;SDS011;17371;51.328;3.860;2023-05-07T01:19:08;9.67;;;5.63;;
30605;SDS011;17371;51.328;3.860;2023-05-07T01:21:34;8.07;;;5.63;;
30605;SDS011;17371;51.328;3.860;2023-05-07T01:24:03;7.18;;;4.97;;
30605;SDS011;17371;51.328;3.860;2023-05-07T01:26:29;10.02;;;5.78;;
30605;SDS011;17371;51.328;3.860;2023-05-07T01:28:54;8.00;;;5.37;;
30605;SDS011;17371;51.328;3.860;2023-05-07T01:31:20;8.00;;;5.17;;
30605;SDS011;17371;51.328;3.860;2023-05-07T01:33:45;8.63;;;5.63;;
30605;SDS011;17371;51.328;3.860;2023-05-07T01:36:11;7.43;;;5.03;;
30605;SDS011;17371;51.328;3.860;2023-05-07T01:38:36;8.40;;;5.07;;
30605;SDS011;17371;51.328;3.860;2023-05-07T01:41:04;8.13;;;5.43;;
30605;SDS011;17371;51.328;3.860;2023-05-07T01:43:29;7.75;;;5.22;;
30605;SDS011;17371;51.328;3.860;2023-05-07T01:45:55;8.70;;;5.07;;
30605;SDS011;17371;51.328;3.860;2023-05-07T01:48:22;8.68;;;5.63;;
30605;SDS011;17371;51.328;3.860;2023-05-07T01:50:47;8.90;;;5.73;;
30605;SDS011;17371;51.328;3.860;2023-05-07T01:53:13;8.40;;;5.32;;
30605;SDS011;17371;51.328;3.860;2023-05-07T01:55:38;6.83;;;4.60;;
30605;SDS011;17371;51.328;3.860;2023-05-07T01:58:05;9.53;;;5.37;;
30605;SDS011;17371;51.328;3.860;2023-05-07T02:00:31;8.55;;;5.15;;
30605;SDS011;17371;51.328;3.860;2023-05-07T02:02:56;8.37;;;5.30;;
30605;SDS011;17371;51.328;3.860;2023-05-07T02:05:22;7.38;;;4.55;;
30605;SDS011;17371;51.328;3.860;2023-05-07T02:07:47;8.30;;;5.17;;
30605;SDS011;17371;51.328;3.860;2023-05-07T02:10:13;8.10;;;5.23;;
30605;SDS011;17371;51.328;3.860;2023-05-07T02:12:38;7.35;;;5.05;;
30605;SDS011;17371;51.328;3.860;2023-05-07T02:15:05;6.50;;;4.40;;
30605;SDS011;17371;51.328;3.860;2023-05-07T02:17:31;6.72;;;4.65;;
30605;SDS011;17371;51.328;3.860;2023-05-07T02:19:57;6.87;;;4.47;;
30605;SDS011;17371;51.328;3.860;2023-05-07T02:22:22;6.77;;;4.50;;
30605;SDS011;17371;51.328;3.860;2023-05-07T02:24:48;6.27;;;3.93;;
30605;SDS011;17371;51.328;3.860;2023-05-07T02:27:13;6.53;;;4.80;;
30605;SDS011;17371;51.328;3.860;2023-05-07T02:29:38;8.73;;;5.25;;
30605;SDS011;17371;51.328;3.860;2023-05-07T02:32:05;5.93;;;4.13;;
30605;SDS011;17371;51.328;3.860;2023-05-07T02:34:31;6.93;;;5.07;;
30605;SDS011;17371;51.328;3.860;2023-05-07T02:36:56;7.97;;;5.18;;
30605;SDS011;17371;51.328;3.860;2023-05-07T02:39:21;7.90;;;5.07;;
30605;SDS011;17371;51.328;3.860;2023-05-07T02:41:47;7.27;;;4.63;;
30605;SDS011;17371;51.328;3.860;2023-05-07T02:44:12;8.30;;;4.63;;
30605;SDS011;17371;51.328;3.860;2023-05-07T02:46:37;7.07;;;4.67;;
30605;SDS011;17371;51.328;3.860;2023-05-07T02:49:04;7.55;;;4.38;;
30605;SDS011;17371;51.328;3.860;2023-05-07T02:51:30;6.07;;;4.23;;
30605;SDS011;17371;51.328;3.860;2023-05-07T02:53:55;6.82;;;4.60;;
30605;SDS011;17371;51.328;3.860;2023-05-07T02:56:21;8.17;;;4.97;;
30605;SDS011;17371;51.328;3.860;2023-05-07T02:58:46;7.13;;;4.45;;
30605;SDS011;17371;51.328;3.860;2023-05-07T03:01:12;6.17;;;4.37;;
30605;SDS011;17371;51.328;3.860;2023-05-07T03:03:37;7.97;;;4.90;;
30605;SDS011;17371;51.328;3.860;2023-05-07T03:06:04;8.27;;;5.03;;
30605;SDS011;17371;51.328;3.860;2023-05-07T03:08:30;6.60;;;4.40;;
30605;SDS011;17371;51.328;3.860;2023-05-07T03:10:55;6.57;;;4.43;;
30605;SDS011;17371;51.328;3.860;2023-05-07T03:13:21;6.30;;;4.03;;
30605;SDS011;17371;51.328;3.860;2023-05-07T03:15:46;7.67;;;4.93;;
30605;SDS011;17371;51.328;3.860;2023-05-07T03:18:11;6.47;;;4.60;;
30605;SDS011;17371;51.328;3.860;2023-05-07T03:20:37;7.63;;;4.93;;
30605;SDS011;17371;51.328;3.860;2023-05-07T03:23:04;6.37;;;4.60;;
30605;SDS011;17371;51.328;3.860;2023-05-07T03:25:29;6.88;;;4.63;;
30605;SDS011;17371;51.328;3.860;2023-05-07T03:27:54;7.23;;;4.60;;
30605;SDS011;17371;51.328;3.860;2023-05-07T03:30:20;7.37;;;5.17;;
30605;SDS011;17371;51.328;3.860;2023-05-07T03:32:45;7.70;;;5.05;;
30605;SDS011;17371;51.328;3.860;2023-05-07T03:35:10;10.07;;;5.07;;
30605;SDS011;17371;51.328;3.860;2023-05-07T03:37:36;8.57;;;5.23;;
30605;SDS011;17371;51.328;3.860;2023-05-07T03:40:04;7.88;;;5.13;;
30605;SDS011;17371;51.328;3.860;2023-05-07T03:42:30;7.87;;;4.83;;
30605;SDS011;17371;51.328;3.860;2023-05-07T03:44:55;7.15;;;5.05;;
30605;SDS011;17371;51.328;3.860;2023-05-07T03:47:21;7.97;;;5.20;;
30605;SDS011;17371;51.328;3.860;2023-05-07T03:49:46;7.20;;;5.20;;
30605;SDS011;17371;51.328;3.860;2023-05-07T03:52:12;7.20;;;4.80;;
30605;SDS011;17371;51.328;3.860;2023-05-07T03:54:37;8.07;;;5.53;;
30605;SDS011;17371;51.328;3.860;2023-05-07T03:57:04;7.90;;;5.03;;
30605;SDS011;17371;51.328;3.860;2023-05-07T03:59:29;7.80;;;5.10;;
30605;SDS011;17371;51.328;3.860;2023-05-07T04:01:54;8.85;;;5.43;;
30605;SDS011;17371;51.328;3.860;2023-05-07T04:04:20;6.80;;;4.87;;
30605;SDS011;17371;51.328;3.860;2023-05-07T04:06:45;7.20;;;5.03;;
30605;SDS011;17371;51.328;3.860;2023-05-07T04:09:11;7.83;;;5.20;;
30605;SDS011;17371;51.328;3.860;2023-05-07T04:11:36;8.97;;;5.10;;
30605;SDS011;17371;51.328;3.860;2023-05-07T04:14:03;7.80;;;5.40;;
30605;SDS011;17371;51.328;3.860;2023-05-07T04:16:28;8.23;;;5.57;;
30605;SDS011;17371;51.328;3.860;2023-05-07T04:18:53;8.23;;;5.57;;
30605;SDS011;17371;51.328;3.860;2023-05-07T04:21:19;8.68;;;5.30;;
30605;SDS011;17371;51.328;3.860;2023-05-07T04:23:45;7.72;;;5.57;;
30605;SDS011;17371;51.328;3.860;2023-05-07T04:26:11;7.03;;;5.07;;
30605;SDS011;17371;51.328;3.860;2023-05-07T04:28:37;8.57;;;4.90;;
30605;SDS011;17371;51.328;3.860;2023-05-07T04:31:04;7.95;;;5.30;;
30605;SDS011;17371;51.328;3.860;2023-05-07T04:33:30;6.65;;;4.85;;
30605;SDS011;17371;51.328;3.860;2023-05-07T04:35:55;10.60;;;5.73;;
30605;SDS011;17371;51.328;3.860;2023-05-07T04:38:21;8.18;;;5.45;;
30605;SDS011;17371;51.328;3.860;2023-05-07T04:40:46;9.77;;;5.57;;
30605;SDS011;17371;51.328;3.860;2023-05-07T04:43:11;9.67;;;6.10;;
30605;SDS011;17371;51.328;3.860;2023-05-07T04:45:37;8.77;;;5.60;;
30605;SDS011;17371;51.328;3.860;2023-05-07T04:48:04;7.87;;;5.27;;
30605;SDS011;17371;51.328;3.860;2023-05-07T04:50:30;9.30;;;5.35;;
30605;SDS011;17371;51.328;3.860;2023-05-07T04:52:55;8.73;;;5.90;;
30605;SDS011;17371;51.328;3.860;2023-05-07T04:55:20;9.63;;;5.57;;
30605;SDS011;17371;51.328;3.860;2023-05-07T04:57:46;7.83;;;5.33;;
30605;SDS011;17371;51.328;3.860;2023-05-07T05:00:13;7.97;;;5.67;;
30605;SDS011;17371;51.328;3.860;2023-05-07T05:02:39;8.60;;;5.70;;
30605;SDS011;17371;51.328;3.860;2023-05-07T05:05:06;7.40;;;5.33;;
30605;SDS011;17371;51.328;3.860;2023-05-07T05:07:32;8.25;;;5.45;;
30605;SDS011;17371;51.328;3.860;2023-05-07T05:09:58;7.97;;;5.80;;
30605;SDS011;17371;51.328;3.860;2023-05-07T05:12:23;7.85;;;5.63;;
30605;SDS011;17371;51.328;3.860;2023-05-07T05:14:49;9.80;;;5.40;;
30605;SDS011;17371;51.328;3.860;2023-05-07T05:17:14;9.87;;;6.00;;
30605;SDS011;17371;51.328;3.860;2023-05-07T05:19:40;8.10;;;5.63;;
30605;SDS011;17371;51.328;3.860;2023-05-07T05:22:07;9.20;;;5.97;;
30605;SDS011;17371;51.328;3.860;2023-05-07T05:24:32;9.80;;;6.18;;
30605;SDS011;17371;51.328;3.860;2023-05-07T05:26:57;11.43;;;6.87;;
30605;SDS011;17371;51.328;3.860;2023-05-07T05:29:23;10.07;;;6.63;;
30605;SDS011;17371;51.328;3.860;2023-05-07T05:31:48;9.73;;;6.70;;
30605;SDS011;17371;51.328;3.860;2023-05-07T05:34:14;8.57;;;6.10;;
30605;SDS011;17371;51.328;3.860;2023-05-07T05:36:39;9.98;;;6.47;;
30605;SDS011;17371;51.328;3.860;2023-05-07T05:39:06;9.70;;;6.53;;
30605;SDS011;17371;51.328;3.860;2023-05-07T05:41:31;12.60;;;6.22;;
30605;SDS011;17371;51.328;3.860;2023-05-07T05:43:57;9.60;;;6.67;;
30605;SDS011;17371;51.328;3.860;2023-05-07T05:46:22;10.60;;;6.53;;
30605;SDS011;17371;51.328;3.860;2023-05-07T05:48:47;11.20;;;7.00;;
30605;SDS011;17371;51.328;3.860;2023-05-07T05:51:13;9.10;;;6.30;;
30605;SDS011;17371;51.328;3.860;2023-05-07T05:53:38;11.02;;;6.88;;
30605;SDS011;17371;51.328;3.860;2023-05-07T05:56:05;10.10;;;6.73;;
30605;SDS011;17371;51.328;3.860;2023-05-07T05:58:31;9.98;;;6.88;;
30605;SDS011;17371;51.328;3.860;2023-05-07T06:00:56;10.83;;;6.93;;
30605;SDS011;17371;51.328;3.860;2023-05-07T06:03:22;11.30;;;6.63;;
30605;SDS011;17371;51.328;3.860;2023-05-07T06:05:47;10.07;;;6.63;;
30605;SDS011;17371;51.328;3.860;2023-05-07T06:08:13;12.60;;;6.50;;
30605;SDS011;17371;51.328;3.860;2023-05-07T06:10:38;11.97;;;6.43;;
30605;SDS011;17371;51.328;3.860;2023-05-07T06:13:05;9.50;;;5.85;;
30605;SDS011;17371;51.328;3.860;2023-05-07T06:15:30;10.93;;;6.10;;
30605;SDS011;17371;51.328;3.860;2023-05-07T06:17:56;10.20;;;5.63;;
30605;SDS011;17371;51.328;3.860;2023-05-07T06:20:21;9.13;;;6.03;;
30605;SDS011;17371;51.328;3.860;2023-05-07T06:22:46;9.47;;;5.37;;
30605;SDS011;17371;51.328;3.860;2023-05-07T06:25:12;7.83;;;5.23;;
30605;SDS011;17371;51.328;3.860;2023-05-07T06:27:37;9.07;;;5.90;;
30605;SDS011;17371;51.328;3.860;2023-05-07T06:30:04;7.97;;;5.15;;
30605;SDS011;17371;51.328;3.860;2023-05-07T06:32:31;7.73;;;5.20;;
30605;SDS011;17371;51.328;3.860;2023-05-07T06:34:56;8.65;;;4.93;;
30605;SDS011;17371;51.328;3.860;2023-05-07T06:37:22;7.43;;;5.13;;
30605;SDS011;17371;51.328;3.860;2023-05-07T06:39:47;8.57;;;5.17;;
30605;SDS011;17371;51.328;3.860;2023-05-07T06:42:12;9.57;;;4.87;;
30605;SDS011;17371;51.328;3.860;2023-05-07T06:44:38;10.85;;;4.57;;
30605;SDS011;17371;51.328;3.860;2023-05-07T06:47:05;6.88;;;3.67;;
30605;SDS011;17371;51.328;3.860;2023-05-07T06:49:30;6.27;;;4.30;;
30605;SDS011;17371;51.328;3.860;2023-05-07T06:51:55;9.10;;;4.60;;
30605;SDS011;17371;51.328;3.860;2023-05-07T06:54:21;7.77;;;4.60;;
30605;SDS011;17371;51.328;3.860;2023-05-07T06:56:46;8.90;;;4.30;;
30605;SDS011;17371;51.328;3.860;2023-05-07T06:59:11;7.87;;;4.10;;
30605;SDS011;17371;51.328;3.860;2023-05-07T07:01:37;7.10;;;4.23;;
30605;SDS011;17371;51.328;3.860;2023-05-07T07:04:04;8.77;;;4.33;;
30605;SDS011;17371;51.328;3.860;2023-05-07T07:06:29;7.53;;;4.38;;
30605;SDS011;17371;51.328;3.860;2023-05-07T07:08:54;7.80;;;4.57;;
30605;SDS011;17371;51.328;3.860;2023-05-07T07:11:20;8.43;;;4.63;;
30605;SDS011;17371;51.328;3.860;2023-05-07T07:13:45;9.47;;;4.30;;
30605;SDS011;17371;51.328;3.860;2023-05-07T07:16:10;7.87;;;3.83;;
30605;SDS011;17371;51.328;3.860;2023-05-07T07:18:36;8.03;;;4.30;;
30605;SDS011;17371;51.328;3.860;2023-05-07T07:21:03;7.20;;;4.30;;
30605;SDS011;17371;51.328;3.860;2023-05-07T07:23:28;7.55;;;3.83;;
30605;SDS011;17371;51.328;3.860;2023-05-07T07:25:54;10.50;;;4.23;;
30605;SDS011;17371;51.328;3.860;2023-05-07T07:28:20;6.97;;;4.15;;
30605;SDS011;17371;51.328;3.860;2023-05-07T07:30:45;6.90;;;4.13;;
30605;SDS011;17371;51.328;3.860;2023-05-07T07:33:11;6.75;;;4.00;;
30605;SDS011;17371;51.328;3.860;2023-05-07T07:35:36;6.03;;;3.97;;
30605;SDS011;17371;51.328;3.860;2023-05-07T07:38:03;8.13;;;4.63;;
30605;SDS011;17371;51.328;3.860;2023-05-07T07:40:28;6.95;;;3.88;;
30605;SDS011;17371;51.328;3.860;2023-05-07T07:42:54;10.30;;;4.03;;
30605;SDS011;17371;51.328;3.860;2023-05-07T07:45:19;7.37;;;4.50;;
30605;SDS011;17371;51.328;3.860;2023-05-07T07:47:45;8.27;;;4.07;;
30605;SDS011;17371;51.328;3.860;2023-05-07T07:50:10;7.03;;;3.70;;
30605;SDS011;17371;51.328;3.860;2023-05-07T07:52:36;6.82;;;3.92;;
30605;SDS011;17371;51.328;3.860;2023-05-07T07:55:03;8.07;;;4.07;;
30605;SDS011;17371;51.328;3.860;2023-05-07T07:57:29;6.45;;;3.92;;
30605;SDS011;17371;51.328;3.860;2023-05-07T07:59:55;6.95;;;4.03;;
30605;SDS011;17371;51.328;3.860;2023-05-07T08:02:20;5.40;;;3.70;;
30605;SDS011;17371;51.328;3.860;2023-05-07T08:04:46;5.70;;;3.83;;
30605;SDS011;17371;51.328;3.860;2023-05-07T08:07:11;6.13;;;3.73;;
30605;SDS011;17371;51.328;3.860;2023-05-07T08:09:37;6.28;;;3.40;;
30605;SDS011;17371;51.328;3.860;2023-05-07T08:12:06;7.30;;;3.67;;
30605;SDS011;17371;51.328;3.860;2023-05-07T08:14:31;6.97;;;3.83;;
30605;SDS011;17371;51.328;3.860;2023-05-07T08:16:57;5.73;;;3.37;;
30605;SDS011;17371;51.328;3.860;2023-05-07T08:19:22;5.88;;;3.42;;
30605;SDS011;17371;51.328;3.860;2023-05-07T08:21:48;5.77;;;3.10;;
30605;SDS011;17371;51.328;3.860;2023-05-07T08:24:13;5.83;;;3.10;;
30605;SDS011;17371;51.328;3.860;2023-05-07T08:26:39;5.65;;;2.88;;
30605;SDS011;17371;51.328;3.860;2023-05-07T08:29:06;4.43;;;2.75;;
30605;SDS011;17371;51.328;3.860;2023-05-07T08:31:31;5.72;;;2.97;;
30605;SDS011;17371;51.328;3.860;2023-05-07T08:33:57;6.17;;;3.00;;
30605;SDS011;17371;51.328;3.860;2023-05-07T08:36:22;5.23;;;2.70;;
30605;SDS011;17371;51.328;3.860;2023-05-07T08:38:48;4.45;;;2.75;;
30605;SDS011;17371;51.328;3.860;2023-05-07T08:41:13;5.45;;;2.75;;
30605;SDS011;17371;51.328;3.860;2023-05-07T08:43:38;4.83;;;2.73;;
30605;SDS011;17371;51.328;3.860;2023-05-07T08:46:07;6.75;;;2.97;;
30605;SDS011;17371;51.328;3.860;2023-05-07T08:48:34;4.30;;;2.70;;
30605;SDS011;17371;51.328;3.860;2023-05-07T08:51:00;5.25;;;2.40;;
30605;SDS011;17371;51.328;3.860;2023-05-07T08:53:25;3.85;;;2.40;;
30605;SDS011;17371;51.328;3.860;2023-05-07T08:55:51;3.97;;;2.30;;
30605;SDS011;17371;51.328;3.860;2023-05-07T08:58:17;4.97;;;2.50;;
30605;SDS011;17371;51.328;3.860;2023-05-07T09:00:42;3.17;;;2.00;;
30605;SDS011;17371;51.328;3.860;2023-05-07T09:03:09;4.10;;;2.20;;
30605;SDS011;17371;51.328;3.860;2023-05-07T09:05:34;3.28;;;2.08;;
30605;SDS011;17371;51.328;3.860;2023-05-07T09:08:00;4.87;;;2.10;;
30605;SDS011;17371;51.328;3.860;2023-05-07T09:10:27;3.58;;;2.15;;
30605;SDS011;17371;51.328;3.860;2023-05-07T09:12:52;4.57;;;2.60;;
30605;SDS011;17371;51.328;3.860;2023-05-07T09:15:17;3.33;;;2.40;;
30605;SDS011;17371;51.328;3.860;2023-05-07T09:17:43;4.53;;;2.17;;
30605;SDS011;17371;51.328;3.860;2023-05-07T09:20:10;2.80;;;2.00;;
30605;SDS011;17371;51.328;3.860;2023-05-07T09:22:36;3.10;;;2.07;;
30605;SDS011;17371;51.328;3.860;2023-05-07T09:25:02;4.78;;;2.17;;
30605;SDS011;17371;51.328;3.860;2023-05-07T09:27:27;5.30;;;2.08;;
30605;SDS011;17371;51.328;3.860;2023-05-07T09:29:53;4.17;;;2.30;;
30605;SDS011;17371;51.328;3.860;2023-05-07T09:32:18;3.57;;;2.13;;
30605;SDS011;17371;51.328;3.860;2023-05-07T09:34:43;3.20;;;2.27;;
30605;SDS011;17371;51.328;3.860;2023-05-07T09:37:11;3.45;;;2.35;;
30605;SDS011;17371;51.328;3.860;2023-05-07T09:39:41;3.75;;;2.45;;
30605;SDS011;17371;51.328;3.860;2023-05-07T09:42:06;3.67;;;2.20;;
30605;SDS011;17371;51.328;3.860;2023-05-07T09:44:32;4.73;;;2.20;;
30605;SDS011;17371;51.328;3.860;2023-05-07T09:46:58;4.75;;;2.40;;
30605;SDS011;17371;51.328;3.860;2023-05-07T09:49:24;3.42;;;2.20;;
30605;SDS011;17371;51.328;3.860;2023-05-07T09:51:53;4.43;;;2.10;;
30605;SDS011;17371;51.328;3.860;2023-05-07T09:54:19;3.67;;;2.20;;
30605;SDS011;17371;51.328;3.860;2023-05-07T09:56:45;5.33;;;1.90;;
30605;SDS011;17371;51.328;3.860;2023-05-07T09:59:13;4.13;;;2.10;;
30605;SDS011;17371;51.328;3.860;2023-05-07T10:01:39;3.67;;;2.28;;
30605;SDS011;17371;51.328;3.860;2023-05-07T10:04:06;5.22;;;2.50;;
30605;SDS011;17371;51.328;3.860;2023-05-07T10:06:31;4.07;;;2.40;;
30605;SDS011;17371;51.328;3.860;2023-05-07T10:08:57;3.60;;;2.20;;
30605;SDS011;17371;51.328;3.860;2023-05-07T10:11:23;3.83;;;2.35;;
30605;SDS011;17371;51.328;3.860;2023-05-07T10:13:49;5.03;;;2.23;;
30605;SDS011;17371;51.328;3.860;2023-05-07T10:16:15;5.38;;;3.00;;
30605;SDS011;17371;51.328;3.860;2023-05-07T10:18:41;4.32;;;2.25;;
30605;SDS011;17371;51.328;3.860;2023-05-07T10:21:07;4.43;;;2.40;;
30605;SDS011;17371;51.328;3.860;2023-05-07T10:23:33;4.65;;;2.35;;
30605;SDS011;17371;51.328;3.860;2023-05-07T10:25:59;4.27;;;2.70;;
30605;SDS011;17371;51.328;3.860;2023-05-07T10:28:27;3.60;;;2.38;;
30605;SDS011;17371;51.328;3.860;2023-05-07T10:31:02;4.38;;;2.70;;
30605;SDS011;17371;51.328;3.860;2023-05-07T10:33:35;3.45;;;2.20;;
30605;SDS011;17371;51.328;3.860;2023-05-07T10:36:01;3.42;;;2.20;;
30605;SDS011;17371;51.328;3.860;2023-05-07T10:38:27;3.90;;;2.50;;
30605;SDS011;17371;51.328;3.860;2023-05-07T10:40:53;3.72;;;2.50;;
30605;SDS011;17371;51.328;3.860;2023-05-07T10:43:18;3.90;;;2.70;;
30605;SDS011;17371;51.328;3.860;2023-05-07T10:45:45;4.60;;;2.30;;
30605;SDS011;17371;51.328;3.860;2023-05-07T10:51:33;3.50;;;2.60;;
30605;SDS011;17371;51.328;3.860;2023-05-07T10:56:48;4.75;;;2.38;;
30605;SDS011;17371;51.328;3.860;2023-05-07T11:02:02;3.47;;;2.00;;
30605;SDS011;17371;51.328;3.860;2023-05-07T11:04:28;3.60;;;2.08;;
30605;SDS011;17371;51.328;3.860;2023-05-07T11:07:14;4.37;;;1.90;;
30605;SDS011;17371;51.328;3.860;2023-05-07T11:09:55;3.67;;;1.90;;
30605;SDS011;17371;51.328;3.860;2023-05-07T11:12:51;2.55;;;1.90;;
30605;SDS011;17371;51.328;3.860;2023-05-07T11:15:33;3.92;;;1.90;;
30605;SDS011;17371;51.328;3.860;2023-05-07T11:18:06;4.40;;;2.28;;
30605;SDS011;17371;51.328;3.860;2023-05-07T11:20:47;4.83;;;2.13;;
30605;SDS011;17371;51.328;3.860;2023-05-07T11:26:16;4.43;;;2.80;;
30605;SDS011;17371;51.328;3.860;2023-05-07T11:28:43;6.30;;;3.10;;
30605;SDS011;17371;51.328;3.860;2023-05-07T11:31:09;7.10;;;3.67;;
30605;SDS011;17371;51.328;3.860;2023-05-07T11:33:35;9.68;;;4.65;;
30605;SDS011;17371;51.328;3.860;2023-05-07T11:36:02;12.18;;;4.85;;
30605;SDS011;17371;51.328;3.860;2023-05-07T11:38:28;11.23;;;5.53;;
30605;SDS011;17371;51.328;3.860;2023-05-07T11:40:54;18.27;;;8.87;;
30605;SDS011;17371;51.328;3.860;2023-05-07T11:43:21;24.73;;;11.02;;
30605;SDS011;17371;51.328;3.860;2023-05-07T11:45:48;25.90;;;12.10;;
30605;SDS011;17371;51.328;3.860;2023-05-07T11:48:14;25.05;;;12.02;;
30605;SDS011;17371;51.328;3.860;2023-05-07T11:50:49;26.73;;;13.00;;
30605;SDS011;17371;51.328;3.860;2023-05-07T11:53:15;25.05;;;11.70;;
30605;SDS011;17371;51.328;3.860;2023-05-07T11:55:41;18.87;;;8.63;;
30605;SDS011;17371;51.328;3.860;2023-05-07T11:58:06;12.33;;;6.60;;
30605;SDS011;17371;51.328;3.860;2023-05-07T12:00:31;6.67;;;4.30;;
30605;SDS011;17371;51.328;3.860;2023-05-07T12:02:59;6.37;;;3.80;;
30605;SDS011;17371;51.328;3.860;2023-05-07T12:05:28;4.03;;;2.20;;
30605;SDS011;17371;51.328;3.860;2023-05-07T12:07:55;4.57;;;2.00;;
30605;SDS011;17371;51.328;3.860;2023-05-07T12:10:21;2.65;;;1.95;;
30605;SDS011;17371;51.328;3.860;2023-05-07T12:12:46;3.47;;;1.67;;
30605;SDS011;17371;51.328;3.860;2023-05-07T12:15:15;2.83;;;1.70;;
30605;SDS011;17371;51.328;3.860;2023-05-07T12:17:40;3.25;;;1.73;;
30605;SDS011;17371;51.328;3.860;2023-05-07T12:20:08;2.13;;;1.50;;
30605;SDS011;17371;51.328;3.860;2023-05-07T12:22:35;2.67;;;1.33;;
30605;SDS011;17371;51.328;3.860;2023-05-07T12:25:00;4.23;;;1.37;;
30605;SDS011;17371;51.328;3.860;2023-05-07T12:27:26;1.77;;;1.27;;
30605;SDS011;17371;51.328;3.860;2023-05-07T12:29:51;2.83;;;1.55;;
30605;SDS011;17371;51.328;3.860;2023-05-07T12:32:17;2.50;;;1.40;;
30605;SDS011;17371;51.328;3.860;2023-05-07T12:34:43;4.75;;;1.40;;
30605;SDS011;17371;51.328;3.860;2023-05-07T12:37:10;4.53;;;1.50;;
30605;SDS011;17371;51.328;3.860;2023-05-07T12:39:35;4.50;;;1.50;;
30605;SDS011;17371;51.328;3.860;2023-05-07T12:42:00;2.13;;;1.40;;
30605;SDS011;17371;51.328;3.860;2023-05-07T12:44:28;3.23;;;1.37;;
30605;SDS011;17371;51.328;3.860;2023-05-07T12:46:56;3.25;;;1.58;;
30605;SDS011;17371;51.328;3.860;2023-05-07T12:49:22;4.10;;;1.50;;
30605;SDS011;17371;51.328;3.860;2023-05-07T12:51:47;2.03;;;1.30;;
30605;SDS011;17371;51.328;3.860;2023-05-07T12:54:14;2.50;;;1.50;;
30605;SDS011;17371;51.328;3.860;2023-05-07T12:56:59;3.17;;;1.70;;
30605;SDS011;17371;51.328;3.860;2023-05-07T12:59:30;3.15;;;1.45;;
30605;SDS011;17371;51.328;3.860;2023-05-07T13:01:56;2.58;;;1.25;;
30605;SDS011;17371;51.328;3.860;2023-05-07T13:04:23;2.13;;;1.20;;
30605;SDS011;17371;51.328;3.860;2023-05-07T13:06:49;4.13;;;1.40;;
30605;SDS011;17371;51.328;3.860;2023-05-07T13:09:16;2.90;;;1.27;;
30605;SDS011;17371;51.328;3.860;2023-05-07T13:11:41;2.40;;;1.33;;
30605;SDS011;17371;51.328;3.860;2023-05-07T13:14:06;1.60;;;1.30;;
30605;SDS011;17371;51.328;3.860;2023-05-07T13:16:32;2.87;;;1.17;;
30605;SDS011;17371;51.328;3.860;2023-05-07T13:18:57;2.70;;;1.20;;
30605;SDS011;17371;51.328;3.860;2023-05-07T13:21:22;1.90;;;1.30;;
30605;SDS011;17371;51.328;3.860;2023-05-07T13:23:48;4.63;;;1.50;;
30605;SDS011;17371;51.328;3.860;2023-05-07T13:26:15;1.80;;;1.47;;
30605;SDS011;17371;51.328;3.860;2023-05-07T13:28:40;9.05;;;5.28;;
30605;SDS011;17371;51.328;3.860;2023-05-07T13:31:05;11.97;;;6.40;;
30605;SDS011;17371;51.328;3.860;2023-05-07T13:33:31;11.30;;;6.85;;
30605;SDS011;17371;51.328;3.860;2023-05-07T13:35:56;13.60;;;8.07;;
30605;SDS011;17371;51.328;3.860;2023-05-07T13:38:22;12.75;;;8.32;;
30605;SDS011;17371;51.328;3.860;2023-05-07T13:40:48;15.03;;;8.17;;
30605;SDS011;17371;51.328;3.860;2023-05-07T13:43:14;14.43;;;8.50;;
30605;SDS011;17371;51.328;3.860;2023-05-07T13:45:40;13.85;;;8.18;;
30605;SDS011;17371;51.328;3.860;2023-05-07T13:48:05;14.40;;;8.50;;
30605;SDS011;17371;51.328;3.860;2023-05-07T13:50:30;18.13;;;8.97;;
30605;SDS011;17371;51.328;3.860;2023-05-07T13:52:56;16.63;;;9.40;;
30605;SDS011;17371;51.328;3.860;2023-05-07T13:55:24;17.43;;;9.67;;
30605;SDS011;17371;51.328;3.860;2023-05-07T13:57:54;16.45;;;9.30;;
30605;SDS011;17371;51.328;3.860;2023-05-07T14:00:22;21.03;;;10.40;;
30605;SDS011;17371;51.328;3.860;2023-05-07T14:02:48;17.33;;;9.30;;
30605;SDS011;17371;51.328;3.860;2023-05-07T14:05:13;16.63;;;9.77;;
30605;SDS011;17371;51.328;3.860;2023-05-07T14:07:38;20.20;;;10.30;;
30605;SDS011;17371;51.328;3.860;2023-05-07T14:10:04;16.73;;;9.67;;
30605;SDS011;17371;51.328;3.860;2023-05-07T14:12:31;20.13;;;9.95;;
30605;SDS011;17371;51.328;3.860;2023-05-07T14:14:56;16.67;;;9.13;;
30605;SDS011;17371;51.328;3.860;2023-05-07T14:17:23;19.23;;;11.07;;
30605;SDS011;17371;51.328;3.860;2023-05-07T14:19:48;18.38;;;10.20;;
30605;SDS011;17371;51.328;3.860;2023-05-07T14:22:14;18.47;;;10.27;;
30605;SDS011;17371;51.328;3.860;2023-05-07T14:24:39;18.70;;;9.70;;
30605;SDS011;17371;51.328;3.860;2023-05-07T14:27:04;18.93;;;9.47;;
30605;SDS011;17371;51.328;3.860;2023-05-07T14:29:30;18.93;;;10.07;;
30605;SDS011;17371;51.328;3.860;2023-05-07T14:31:55;17.57;;;10.10;;
30605;SDS011;17371;51.328;3.860;2023-05-07T14:34:22;17.50;;;9.98;;
30605;SDS011;17371;51.328;3.860;2023-05-07T14:36:48;18.93;;;10.80;;
30605;SDS011;17371;51.328;3.860;2023-05-07T14:39:13;19.75;;;10.73;;
30605;SDS011;17371;51.328;3.860;2023-05-07T14:41:38;16.70;;;9.97;;
30605;SDS011;17371;51.328;3.860;2023-05-07T14:44:04;21.47;;;10.47;;
30605;SDS011;17371;51.328;3.860;2023-05-07T14:46:29;16.57;;;10.43;;
30605;SDS011;17371;51.328;3.860;2023-05-07T14:48:55;16.77;;;10.15;;
30605;SDS011;17371;51.328;3.860;2023-05-07T14:51:22;18.83;;;10.43;;